• Join FlightAware (Why Join?)
  • Login
  • US Flag 
08:40PM EST


 

Airport Tracker/Info


-or-


 

Live Flight TrackerFlight Track Log ✈ SWA1516 ✈ 14-May-2013 ✈ KATL - KHOU

Flight Track Log - Related Links

Times and Time Zones

All times are in EDT time to prevent confusion due to time zone crossing. See the SWA1516 flight status page for this flight to view local times or setup timezone preferences in your user account.

Time Position Orientation Groundspeed Altitude Reporting Facility
EDT Latitude Longitude Course Direction KTS MPH feet Rate Location/Type
08:47PM 33.6500 -84.4500 284° West 151 174 2,500  Level Atlanta TRACON
08:48PM 33.6667 -84.5333 284° West 217 250 5,100 2,550 Climbing Atlanta TRACON
08:49PM 33.6667 -84.6000 270° West 260 299 7,600 2,742 Climbing Atlanta TRACON
08:50PM 33.6961 -84.7531 283° West 313 360 12,000 2,871 Climbing Atlanta Center
08:51PM 33.6578 -84.8650 248° West 335 386 15,400 3,300 Climbing Atlanta Center
08:52PM 33.6133 -84.9767 244° Southwest 350 403 18,600 3,100 Climbing Atlanta Center
08:53PM 33.5644 -85.0908 243° Southwest 379 436 21,600 2,200 Climbing Atlanta Center
08:54PM 33.5172 -85.2125 245° Southwest 394 453 23,000 1,850 Climbing Atlanta Center
08:55PM 33.4931 -85.3442 258° West 399 459 25,300 2,100 Climbing Atlanta Center
08:56PM 33.4539 -85.4878 252° West 411 473 27,200 1,900 Climbing Atlanta Center
08:57PM 33.4125 -85.6267 250° West 429 494 29,100 1,900 Climbing Atlanta Center
08:58PM 33.3731 -85.7700 252° West 443 510 31,000 2,000 Climbing Atlanta Center
08:59PM 33.3378 -85.9036 252° West 443 510 33,100 1,950 Climbing Atlanta Center
09:00PM 33.3003 -86.0297 250° West 443 510 34,900 1,950 Climbing Atlanta Center
09:01PM 33.2606 -86.1581 250° West 437 503 37,000 1,950 Climbing Atlanta Center
09:02PM 33.2247 -86.2961 253° West 437 503 38,800 1,500 Climbing Atlanta Center
09:03PM 33.1889 -86.4192 251° West 416 479 40,000 600 Climbing Atlanta Center
09:04PM 33.1531 -86.5422 251° West 406 467 40,000  Level Atlanta Center
09:05PM 33.1150 -86.6703 250° West 406 467 40,000  Level Atlanta Center
09:06PM 33.0744 -86.8003 250° West 406 467 40,000  Level Atlanta Center
09:07PM 33.0383 -86.9256 251° West 401 461 40,000  Level Atlanta Center
09:08PM 33.0019 -87.0483 251° West 401 461 40,000  Level Atlanta Center
09:09PM 32.9656 -87.1733 251° West 401 461 40,000  Level Atlanta Center
09:10PM 32.9203 -87.3078 248° West 414 476 40,000  Level Atlanta Center
09:11PM 32.8856 -87.4300 251° West 409 471 40,000  Level Atlanta Center
09:14PM 32.7886 -87.7453 250° West 409 471 40,000  Level Memphis Center
09:15PM 32.7514 -87.8700 250° West 409 471 40,000  Level Memphis Center
09:16PM 32.7181 -87.9844 251° West 409 471 40,000  Level Memphis Center
09:17PM 32.6828 -88.1086 251° West 404 465 40,000  Level Memphis Center
09:18PM 32.6453 -88.2281 250° West 404 465 40,000  Level Memphis Center
09:19PM 32.6078 -88.3522 250° West 404 465 40,000  Level Memphis Center
09:20PM 32.5678 -88.4739 249° West 398 458 40,000  Level Memphis Center
09:21PM 32.5278 -88.5956 249° West 398 458 40,000  Level Memphis Center
09:22PM 32.4878 -88.7194 249° West 398 458 40,000  Level Memphis Center
09:23PM 32.4517 -88.8408 251° West 398 458 40,000  Level Memphis Center
09:24PM 32.4136 -88.9644 250° West 398 458 40,000  Level Memphis Center
09:25PM 32.3731 -89.0856 248° West 398 458 40,000  Level Memphis Center
09:26PM 32.3347 -89.2067 249° West 398 458 40,000  Level Memphis Center
09:27PM 32.2939 -89.3300 249° West 398 458 40,000  Level Memphis Center
09:28PM 32.2572 -89.4508 250° West 398 458 40,000  Level Memphis Center
09:29PM 32.2164 -89.5717 248° West 398 458 40,000  Level Memphis Center
09:30PM 32.1775 -89.6922 249° West 398 458 40,000  Level Memphis Center
09:31PM 32.1383 -89.8128 249° West 398 458 40,000  Level Memphis Center
09:32PM 32.0992 -89.9356 249° West 398 458 40,000  Level Memphis Center
09:33PM 32.0597 -90.0533 248° West 393 452 40,000  Level Memphis Center
09:34PM 32.0206 -90.1711 249° West 393 452 40,000  Level Memphis Center
09:35PM 31.9808 -90.2911 249° West 393 452 40,000  Level Memphis Center
09:36PM 31.9433 -90.4089 249° West 393 452 40,000  Level Memphis Center
09:38PM 31.8506 -90.6925 249° West 387 445 40,000  Level Houston Center
09:39PM 31.8031 -90.8317 248° West 385 443 40,000  Level Houston Center
09:40PM 31.7642 -90.9486 249° West 387 445 40,000  Level Houston Center
09:41PM 31.7258 -91.0628 248° West 380 437 40,000  Level Houston Center
09:42PM 31.6842 -91.1839 248° West 388 447 40,000  Level Houston Center
09:43PM 31.6467 -91.2964 249° West 378 435 40,000  Level Houston Center
09:44PM 31.6075 -91.4094 248° West 377 434 40,000  Level Houston Center
09:45PM 31.5669 -91.5194 247° West 371 427 40,000  Level Houston Center
09:46PM 31.5267 -91.6300 247° West 371 427 40,000  Level Houston Center
09:47PM 31.4856 -91.7378 246° West 365 420 40,000  Level Houston Center
09:48PM 31.4453 -91.8475 247° West 367 422 40,000  Level Houston Center
09:49PM 31.4067 -91.9558 247° West 363 418 40,000  Level Houston Center
09:50PM 31.3592 -92.0756 245° Southwest 359 413 40,000  Level Houston Center
09:51PM 31.3194 -92.1853 247° West 365 420 40,000 -49 Level Houston Center
09:52PM 31.2789 -92.2922 246° West 363 418 39,900  Descending Houston Center
09:53PM 31.2378 -92.3992 246° West 362 417 40,000 -836 Climbing Houston Center
09:54PM 31.1967 -92.5111 247° West 372 428 38,200 -1,574 Descending Houston Center
09:55PM 31.1533 -92.6278 247° West 390 449 36,800 -1,082 Descending Houston Center
09:56PM 31.1117 -92.7397 247° West 381 438 36,000 -393 Descending Houston Center
09:57PM 31.0692 -92.8531 246° West 383 441 36,000  Level Houston Center
09:59PM 31.0264 -92.9658 246° West 383 441 36,000  Level Houston Center
10:00PM 30.9744 -93.1025 246° West 387 445 36,000  Level Houston Center
10:01PM 30.9308 -93.2161 246° West 388 447 36,000  Level Houston Center
10:02PM 30.8878 -93.3308 246° West 390 449 36,000  Level Houston Center
10:03PM 30.8436 -93.4442 246° West 390 449 36,000  Level Houston Center
10:04PM 30.7997 -93.5572 246° West 388 447 36,000  Level Houston Center
10:05PM 30.7575 -93.6689 246° West 383 441 36,000 -246 Level Houston Center
10:06PM 30.7139 -93.7811 246° West 384 442 35,500 -1,869 Descending Houston Center
10:07PM 30.6697 -93.8939 246° West 386 444 32,200 -2,754 Descending Houston Center
10:08PM 30.6244 -94.0092 245° Southwest 393 452 29,900 -2,508 Descending Houston Center
10:09PM 30.5731 -94.1408 246° West 378 435 27,100 -2,459 Descending Houston Center
10:10PM 30.5311 -94.2467 245° Southwest 365 420 24,900 -2,169 Descending Houston Center
10:10PM 30.5144 -94.2889 245° Southwest 362 417 24,100 -2,164 Descending Houston Center
10:11PM 30.4903 -94.3503 245° Southwest 357 411 22,700 -2,182 Descending Houston Center
10:11PM 30.4792 -94.3786 246° West 350 403 22,100 -2,066 Descending Houston Center
10:12PM 30.4497 -94.4506 245° Southwest 347 399 20,600 -2,055 Descending Houston Center
10:12PM 30.4303 -94.5014 246° West 341 392 19,600 -1,869 Descending Houston Center
10:13PM 30.4150 -94.5406 246° West 342 394 18,700 -1,967 Descending Houston Center
10:13PM 30.3894 -94.6011 244° Southwest 341 392 17,600 -2,557 Descending Houston Center
10:14PM 30.3678 -94.6586 246° West 339 390 16,100 -2,444 Descending Houston Center
10:14PM 30.3544 -94.6928 246° West 336 387 15,400 -2,066 Descending Houston Center
10:15PM 30.3294 -94.7567 246° West 336 387 14,000 -2,164 Descending Houston Center
10:15PM 30.3136 -94.7950 244° Southwest 333 383 13,200 -1,574 Descending Houston Center
10:16PM 30.2842 -94.8472 237° Southwest 328 377 12,400 -1,075 Descending Houston Center
10:16PM 30.2556 -94.8894 232° Southwest 326 375 12,000 -984 Descending Houston Center
10:17PM 30.2286 -94.9300 232° Southwest 327 376 11,400 -1,091 Descending Houston Center
10:17PM 30.2039 -94.9661 232° Southwest 329 379 11,000 -885 Descending Houston Center
10:18PM 30.1747 -95.0147 235° Southwest 327 376 10,500 -822 Descending Houston Center
10:18PM 30.1353 -95.0639 227° Southwest 330 380 10,000 -492 Descending Houston Center
10:19PM 30.1078 -95.0825 210° Southwest 329 379 10,000  Level Houston Center
10:19PM 30.0611 -95.1022 200° South 320 368 10,000  Level Houston Center
10:20PM 30.0233 -95.1192 201° Southwest 325 374 10,000 -316 Level Houston Center
10:21PM 29.9439 -95.1531 200° South 310 357 9,500 -815 Descending Houston Center
10:21PM 29.9078 -95.1692 201° Southwest 283 326 8,900 -1,377 Descending Houston Center
10:22PM 29.8717 -95.1842 200° South 284 327 8,100 -1,343 Descending Houston Center
10:22PM 29.8311 -95.2028 202° Southwest 274 315 7,400 -1,279 Descending Houston Center
10:23PM 29.8014 -95.2147 199° South 274 315 6,800 -1,377 Descending Houston Center
10:23PM 29.7583 -95.2333 201° Southwest 262 302 6,000 -787 Descending Houston Center
10:24PM 29.7347 -95.2436 201° Southwest 263 303 6,000 -188 Level Houston Center
10:25PM 29.6831 -95.2989 223° Southwest 207 238 5,700 -675 Descending Houston Center
10:25PM 29.6733 -95.3133 232° Southwest 186 214 5,100 -1,967 Descending Houston Center
10:26PM 29.6650 -95.3506 256° West 203 234 3,700 -2,060 Descending Houston Center
10:26PM 29.6689 -95.3789 279° West 192 221 2,800 -1,574 Descending Houston Center
10:27PM 29.6792 -95.4089 292° West 202 232 2,100 -500 Descending Houston Center
10:28PM 29.7136 -95.3819 34° Northeast 177 204 2,000 -298 Descending Houston Center
10:29PM 29.7000 -95.3436 112° Southeast 148 170 1,500 -590 Descending Houston Center
10:30PM 29.6767 -95.3172 135° Southeast 128 147 800 -639 Descending Houston Center
10:31PM 29.6539 -95.2900 134° Southeast 122 140 200 -590 Descending Houston Center